createdAt,value
2019-01-29T00:00:39.334Z,2.19
2019-01-29T00:01:21.541Z,2.13
2019-01-29T00:01:57.259Z,2.16
2019-01-29T00:02:32.630Z,2.12
2019-01-29T00:03:08.533Z,2.08
2019-01-29T00:03:44.034Z,2.08
2019-01-29T00:04:19.452Z,2.06
2019-01-29T00:04:55.145Z,2.05
2019-01-29T00:05:30.558Z,2.16
2019-01-29T00:06:08.801Z,2.19
2019-01-29T00:06:43.897Z,2.14
2019-01-29T00:07:19.309Z,2.14
2019-01-29T00:07:54.740Z,2.16
2019-01-29T00:08:30.416Z,2.15
2019-01-29T00:09:09.518Z,2.06
2019-01-29T00:09:45.190Z,2.13
2019-01-29T00:10:20.564Z,2.09
2019-01-29T00:10:55.966Z,2.04
2019-01-29T00:11:31.358Z,2.03
2019-01-29T00:12:07.119Z,2.06
2019-01-29T00:12:42.508Z,2.08
2019-01-29T00:13:18.166Z,2.07
2019-01-29T00:13:53.840Z,2.05
2019-01-29T00:14:29.491Z,1.98
2019-01-29T00:15:05.614Z,2.00
2019-01-29T00:15:41.295Z,2.08
2019-01-29T00:16:17.033Z,2.03
2019-01-29T00:16:52.531Z,2.02
2019-01-29T00:17:28.275Z,1.87
2019-01-29T00:18:03.883Z,1.82
2019-01-29T00:18:39.340Z,1.83
2019-01-29T00:19:14.742Z,1.83
2019-01-29T00:19:50.121Z,1.81
2019-01-29T00:20:25.526Z,1.79
2019-01-29T00:21:00.910Z,1.93
2019-01-29T00:21:36.363Z,1.98
2019-01-29T00:22:11.811Z,1.92
2019-01-29T00:22:47.480Z,1.99
2019-01-29T00:23:23.144Z,1.97
2019-01-29T00:23:58.534Z,1.92
2019-01-29T00:24:33.924Z,1.85
2019-01-29T00:25:09.475Z,1.93
2019-01-29T00:25:45.147Z,1.95
2019-01-29T00:26:20.781Z,1.96
2019-01-29T00:26:56.205Z,1.94
2019-01-29T00:27:31.618Z,1.93
2019-01-29T00:28:07.160Z,1.87
2019-01-29T00:28:42.593Z,1.99
2019-01-29T00:29:18.242Z,2.00
2019-01-29T00:29:53.658Z,2.00
2019-01-29T00:30:29.045Z,1.96
2019-01-29T00:31:04.431Z,1.97
2019-01-29T00:31:39.860Z,1.93
2019-01-29T00:32:15.274Z,1.83
2019-01-29T00:32:50.652Z,1.86
2019-01-29T00:33:26.342Z,1.75
2019-01-29T00:34:01.720Z,1.79
2019-01-29T00:34:37.201Z,1.72
2019-01-29T00:35:13.001Z,1.85
2019-01-29T00:35:48.667Z,1.84
2019-01-29T00:36:24.057Z,1.86
2019-01-29T00:36:59.451Z,1.86
2019-01-29T00:37:35.284Z,1.83
2019-01-29T00:38:10.996Z,1.74
2019-01-29T00:38:46.383Z,1.69
2019-01-29T00:39:22.026Z,1.64
2019-01-29T00:39:57.415Z,1.67
2019-01-29T00:40:33.056Z,1.74
2019-01-29T00:41:08.585Z,1.88
2019-01-29T00:41:44.021Z,1.76
2019-01-29T00:42:19.446Z,1.69
2019-01-29T00:42:54.823Z,1.62
2019-01-29T00:43:30.252Z,1.59
2019-01-29T00:44:06.059Z,1.59
2019-01-29T00:44:41.769Z,1.59
2019-01-29T00:45:17.300Z,1.75
2019-01-29T00:45:52.927Z,1.83
2019-01-29T00:46:28.323Z,1.81
2019-01-29T00:47:03.990Z,1.73
2019-01-29T00:47:39.535Z,1.61
2019-01-29T00:48:15.020Z,1.60
2019-01-29T00:48:50.404Z,1.54
2019-01-29T00:49:26.175Z,1.54
2019-01-29T00:50:01.820Z,1.66
2019-01-29T00:50:37.299Z,1.62
2019-01-29T00:51:12.754Z,1.63
2019-01-29T00:51:48.379Z,1.58
2019-01-29T00:52:24.029Z,1.56
2019-01-29T00:52:59.663Z,1.61
2019-01-29T00:53:35.466Z,1.62
2019-01-29T00:54:10.917Z,1.61
2019-01-29T00:54:46.557Z,1.64
2019-01-29T00:55:21.928Z,1.61
2019-01-29T00:55:57.300Z,1.64
2019-01-29T00:56:32.702Z,1.63
2019-01-29T00:57:08.378Z,1.67
2019-01-29T00:57:44.075Z,1.67
2019-01-29T00:58:19.451Z,1.63
2019-01-29T00:58:54.824Z,1.63
2019-01-29T00:59:30.222Z,1.72
2019-01-29T01:00:08.226Z,1.68
2019-01-29T01:00:43.704Z,1.58
2019-01-29T01:01:19.134Z,1.65
2019-01-29T01:01:54.858Z,1.71
2019-01-29T01:02:30.265Z,1.68
2019-01-29T01:03:05.939Z,1.60
2019-01-29T01:03:41.352Z,1.54
2019-01-29T01:04:16.744Z,1.51
2019-01-29T01:04:52.254Z,1.50
2019-01-29T01:05:27.885Z,1.52
2019-01-29T01:06:03.277Z,1.46
2019-01-29T01:06:38.966Z,1.49
2019-01-29T01:07:14.360Z,1.46
2019-01-29T01:07:49.834Z,1.52
2019-01-29T01:08:25.230Z,1.64
2019-01-29T01:09:00.864Z,1.69
2019-01-29T01:09:36.230Z,1.63
2019-01-29T01:10:13.604Z,1.57
2019-01-29T01:10:49.096Z,1.59
2019-01-29T01:11:24.496Z,1.54
2019-01-29T01:11:59.971Z,1.57
2019-01-29T01:12:35.401Z,1.61
2019-01-29T01:13:10.800Z,1.64
2019-01-29T01:13:46.949Z,1.59
2019-01-29T01:14:22.602Z,1.56
2019-01-29T01:14:57.980Z,1.57
2019-01-29T01:15:33.748Z,1.60
2019-01-29T01:16:09.192Z,1.52
2019-01-29T01:16:44.691Z,1.59
2019-01-29T01:17:20.406Z,1.55
2019-01-29T01:17:56.095Z,1.51
2019-01-29T01:18:31.480Z,1.49
2019-01-29T01:19:07.091Z,1.55
2019-01-29T01:19:42.758Z,1.57
2019-01-29T01:20:18.791Z,1.50
2019-01-29T01:20:54.189Z,1.44
2019-01-29T01:21:30.002Z,1.52
2019-01-29T01:22:05.418Z,1.50
2019-01-29T01:22:40.819Z,1.48
2019-01-29T01:23:16.190Z,1.55
2019-01-29T01:23:51.559Z,1.52
2019-01-29T01:24:26.971Z,1.46
2019-01-29T01:25:02.417Z,1.45
2019-01-29T01:25:37.888Z,1.41
2019-01-29T01:26:13.689Z,1.43
2019-01-29T01:26:49.072Z,1.35
2019-01-29T01:27:24.742Z,1.31
2019-01-29T01:28:00.250Z,1.29
2019-01-29T01:28:35.764Z,1.38
2019-01-29T01:29:11.149Z,1.33
2019-01-29T01:29:46.550Z,1.34
2019-01-29T01:30:22.026Z,1.27
2019-01-29T01:30:57.718Z,1.29
2019-01-29T01:31:33.126Z,1.27
2019-01-29T01:32:08.790Z,1.27
2019-01-29T01:32:44.208Z,1.32
2019-01-29T01:33:19.601Z,1.31
2019-01-29T01:33:54.985Z,1.29
2019-01-29T01:34:30.408Z,1.28
2019-01-29T01:35:06.433Z,1.27
2019-01-29T01:35:42.094Z,1.23
2019-01-29T01:36:17.472Z,1.26
2019-01-29T01:36:53.110Z,1.28
2019-01-29T01:37:28.511Z,1.28
2019-01-29T01:38:04.275Z,1.22
2019-01-29T01:38:39.953Z,1.24
2019-01-29T01:39:15.369Z,1.39
2019-01-29T01:39:51.015Z,1.47
2019-01-29T01:40:26.434Z,1.38
2019-01-29T01:41:01.883Z,1.41
2019-01-29T01:41:37.293Z,1.43
2019-01-29T01:42:12.683Z,1.39
2019-01-29T01:42:48.070Z,1.33
2019-01-29T01:43:23.728Z,1.29
2019-01-29T01:43:59.251Z,1.43
2019-01-29T01:44:34.687Z,1.47
2019-01-29T01:45:10.913Z,1.44
2019-01-29T01:45:46.373Z,1.47
2019-01-29T01:46:22.139Z,1.45
2019-01-29T01:46:57.831Z,1.43
2019-01-29T01:47:33.215Z,1.43
2019-01-29T01:48:08.620Z,1.41
2019-01-29T01:48:44.098Z,1.41
2019-01-29T01:49:19.769Z,1.39
2019-01-29T01:49:55.670Z,1.42
2019-01-29T01:50:31.604Z,1.38
2019-01-29T01:51:06.979Z,1.41
2019-01-29T01:51:42.395Z,1.51
2019-01-29T01:52:18.113Z,1.54
2019-01-29T01:52:59.154Z,1.53
2019-01-29T01:53:30.634Z,1.49
2019-01-29T01:54:06.169Z,1.52
2019-01-29T01:54:41.567Z,1.49
2019-01-29T01:55:18.467Z,1.52
2019-01-29T01:55:54.418Z,1.54
2019-01-29T01:56:29.813Z,1.55
2019-01-29T01:57:05.321Z,1.53
2019-01-29T01:57:41.291Z,1.62
2019-01-29T01:58:16.725Z,1.59
2019-01-29T01:58:52.519Z,1.50
2019-01-29T01:59:27.903Z,1.64
2019-01-29T02:00:03.642Z,1.80
2019-01-29T02:00:39.059Z,1.70
2019-01-29T02:01:14.896Z,1.65
2019-01-29T02:01:50.760Z,1.60
2019-01-29T02:02:26.159Z,1.63
2019-01-29T02:03:01.949Z,1.60
2019-01-29T02:03:37.572Z,1.53
2019-01-29T02:04:12.962Z,1.55
2019-01-29T02:04:48.612Z,1.58
2019-01-29T02:05:24.078Z,1.63
2019-01-29T02:05:59.512Z,1.61
2019-01-29T02:06:34.890Z,1.58
2019-01-29T02:07:10.269Z,1.53
2019-01-29T02:07:45.828Z,1.55
2019-01-29T02:08:21.242Z,1.62
2019-01-29T02:08:56.662Z,1.65
2019-01-29T02:09:32.165Z,1.64
2019-01-29T02:10:19.045Z,1.65
2019-01-29T02:10:54.523Z,1.62
2019-01-29T02:11:30.323Z,1.60
2019-01-29T02:12:05.807Z,1.69
2019-01-29T02:12:41.768Z,1.66
2019-01-29T02:13:17.428Z,1.64
2019-01-29T02:13:53.168Z,1.69
2019-01-29T02:14:28.628Z,1.69
2019-01-29T02:15:04.737Z,1.66
2019-01-29T02:15:40.137Z,1.64
2019-01-29T02:16:15.536Z,1.59
2019-01-29T02:16:51.090Z,1.64
2019-01-29T02:17:26.528Z,1.63
2019-01-29T02:18:02.258Z,1.55
2019-01-29T02:18:37.898Z,1.55
2019-01-29T02:19:13.872Z,1.58
2019-01-29T02:19:49.527Z,1.52
2019-01-29T02:20:25.320Z,1.52
2019-01-29T02:21:00.751Z,1.57
2019-01-29T02:21:36.389Z,1.62
2019-01-29T02:22:11.774Z,1.65
2019-01-29T02:22:47.179Z,1.61
2019-01-29T02:23:22.628Z,1.54
2019-01-29T02:23:58.378Z,1.55
2019-01-29T02:24:33.997Z,1.61
2019-01-29T02:25:09.861Z,1.57
2019-01-29T02:25:45.480Z,1.55
2019-01-29T02:26:20.912Z,1.63
2019-01-29T02:26:56.433Z,1.73
2019-01-29T02:27:31.935Z,1.76
2019-01-29T02:28:07.323Z,1.76
2019-01-29T02:28:42.993Z,1.81
2019-01-29T02:29:18.409Z,1.79
2019-01-29T02:29:54.207Z,1.75
2019-01-29T02:30:29.754Z,1.73
2019-01-29T02:31:05.412Z,1.70
2019-01-29T02:31:40.773Z,1.70
2019-01-29T02:32:16.157Z,1.68
2019-01-29T02:32:51.602Z,1.72
2019-01-29T02:33:27.349Z,1.72
2019-01-29T02:34:02.802Z,1.81
2019-01-29T02:34:38.208Z,1.84
2019-01-29T02:35:13.727Z,1.95
2019-01-29T02:35:49.464Z,1.89
2019-01-29T02:36:25.004Z,1.99
2019-01-29T02:37:00.559Z,2.04
2019-01-29T02:37:36.270Z,2.05
2019-01-29T02:38:12.026Z,1.96
2019-01-29T02:38:48.076Z,1.98
2019-01-29T02:39:23.544Z,1.91
2019-01-29T02:39:59.182Z,1.96
2019-01-29T02:40:34.963Z,1.85
2019-01-29T02:41:10.660Z,1.84
2019-01-29T02:41:46.660Z,1.85
2019-01-29T02:42:22.405Z,1.86
2019-01-29T02:42:58.342Z,1.84
2019-01-29T02:43:34.025Z,1.82
2019-01-29T02:44:09.440Z,1.85
2019-01-29T02:44:45.147Z,1.91
2019-01-29T02:45:21.016Z,1.90
2019-01-29T02:45:56.746Z,1.96
2019-01-29T02:46:32.443Z,1.89
2019-01-29T02:47:07.866Z,1.86
2019-01-29T02:47:43.309Z,1.84
2019-01-29T02:48:18.979Z,1.84
2019-01-29T02:48:54.872Z,1.83
2019-01-29T02:49:30.314Z,1.77
2019-01-29T02:50:06.808Z,1.83
2019-01-29T02:50:42.506Z,1.77
2019-01-29T02:51:18.122Z,1.76
2019-01-29T02:51:53.563Z,1.74
2019-01-29T02:52:29.306Z,1.75
2019-01-29T02:53:05.082Z,1.71
2019-01-29T02:53:40.519Z,1.72
2019-01-29T02:54:16.177Z,1.71
2019-01-29T02:54:51.594Z,1.68
2019-01-29T02:55:27.318Z,1.72
2019-01-29T02:56:02.770Z,1.73
2019-01-29T02:56:38.200Z,1.70
2019-01-29T02:57:13.897Z,1.78
2019-01-29T02:57:49.297Z,1.89
2019-01-29T02:58:24.743Z,1.85
2019-01-29T02:59:00.200Z,1.98
2019-01-29T02:59:35.643Z,2.04
2019-01-29T03:00:14.860Z,1.93
2019-01-29T03:00:50.279Z,1.90
2019-01-29T03:01:25.844Z,1.83
2019-01-29T03:02:01.283Z,1.91
2019-01-29T03:02:36.706Z,2.00
2019-01-29T03:03:12.242Z,1.93
2019-01-29T03:03:47.678Z,1.98
2019-01-29T03:04:23.121Z,1.90
2019-01-29T03:04:58.847Z,1.78
2019-01-29T03:05:34.516Z,1.72
2019-01-29T03:06:10.307Z,1.73
2019-01-29T03:06:45.715Z,1.71
2019-01-29T03:07:21.233Z,1.66
2019-01-29T03:07:56.752Z,1.64
2019-01-29T03:08:32.181Z,1.60
2019-01-29T03:09:09.658Z,1.59
2019-01-29T03:09:45.335Z,1.51
2019-01-29T03:10:22.330Z,1.52
2019-01-29T03:10:57.762Z,1.51
2019-01-29T03:11:34.691Z,1.51
2019-01-29T03:12:10.109Z,1.53
2019-01-29T03:12:45.519Z,1.53
2019-01-29T03:13:20.939Z,1.46
2019-01-29T03:13:56.467Z,1.45
2019-01-29T03:14:31.957Z,1.42
2019-01-29T03:15:09.128Z,1.50
2019-01-29T03:15:44.546Z,1.48
2019-01-29T03:16:19.963Z,1.48
2019-01-29T03:16:55.427Z,1.41
2019-01-29T03:17:30.894Z,1.38
2019-01-29T03:18:06.412Z,1.34
2019-01-29T03:18:41.851Z,1.35
2019-01-29T03:19:17.268Z,1.35
2019-01-29T03:19:53.343Z,1.31
2019-01-29T03:20:28.816Z,1.35
2019-01-29T03:21:04.362Z,1.32
2019-01-29T03:21:39.774Z,1.33
2019-01-29T03:22:15.200Z,1.34
2019-01-29T03:22:50.610Z,1.41
2019-01-29T03:23:27.432Z,1.40
2019-01-29T03:24:03.419Z,1.45
2019-01-29T03:24:38.831Z,1.44
2019-01-29T03:25:14.262Z,1.40
2019-01-29T03:25:50.239Z,1.39
2019-01-29T03:26:25.710Z,1.40
2019-01-29T03:27:01.139Z,1.40
2019-01-29T03:27:36.839Z,1.40
2019-01-29T03:28:12.542Z,1.37
2019-01-29T03:28:48.282Z,1.35
2019-01-29T03:29:23.735Z,1.39
2019-01-29T03:29:59.239Z,1.33
2019-01-29T03:30:34.674Z,1.35
2019-01-29T03:31:10.112Z,1.42
2019-01-29T03:31:45.755Z,1.34
2019-01-29T03:32:21.184Z,1.42
2019-01-29T03:32:56.970Z,1.49
2019-01-29T03:33:32.761Z,1.48
2019-01-29T03:34:08.313Z,1.46
2019-01-29T03:34:43.746Z,1.54
2019-01-29T03:35:19.261Z,1.41
2019-01-29T03:35:54.695Z,1.50
2019-01-29T03:36:30.177Z,1.53
2019-01-29T03:37:05.854Z,1.47
2019-01-29T03:37:41.367Z,1.46
2019-01-29T03:38:16.781Z,1.48
2019-01-29T03:38:52.206Z,1.54
2019-01-29T03:39:28.320Z,1.58
2019-01-29T03:40:04.375Z,1.47
2019-01-29T03:40:39.789Z,1.49
2019-01-29T03:41:15.211Z,1.44
2019-01-29T03:41:50.858Z,1.47
2019-01-29T03:42:26.325Z,1.57
2019-01-29T03:43:01.765Z,1.67
2019-01-29T03:43:37.187Z,1.68
2019-01-29T03:44:12.638Z,1.66
2019-01-29T03:44:48.058Z,1.66
2019-01-29T03:45:23.531Z,1.64
2019-01-29T03:45:59.256Z,1.54
2019-01-29T03:46:34.797Z,1.64
2019-01-29T03:47:10.206Z,1.57
2019-01-29T03:47:45.867Z,1.55
2019-01-29T03:48:21.415Z,1.55
2019-01-29T03:48:56.882Z,1.51
2019-01-29T03:49:34.216Z,1.61
2019-01-29T03:50:10.388Z,1.53
2019-01-29T03:50:46.067Z,1.44
2019-01-29T03:51:22.009Z,1.41
2019-01-29T03:51:57.484Z,1.41
2019-01-29T03:52:33.221Z,1.50
2019-01-29T03:53:08.922Z,1.42
2019-01-29T03:53:44.338Z,1.52
2019-01-29T03:54:19.859Z,1.50
2019-01-29T03:54:55.581Z,1.48
2019-01-29T03:55:31.130Z,1.57
2019-01-29T03:56:06.543Z,1.56
2019-01-29T03:56:42.221Z,1.54
2019-01-29T03:57:17.636Z,1.58
2019-01-29T03:57:53.080Z,1.59
2019-01-29T03:58:28.547Z,1.55
2019-01-29T03:59:04.680Z,1.66
2019-01-29T03:59:40.157Z,1.68
2019-01-29T04:00:17.658Z,1.65
2019-01-29T04:00:53.096Z,1.68
2019-01-29T04:01:28.846Z,1.66
2019-01-29T04:02:04.717Z,1.58
2019-01-29T04:02:40.148Z,1.64
2019-01-29T04:03:15.583Z,1.56
2019-01-29T04:03:51.014Z,1.71
2019-01-29T04:04:26.490Z,1.70
2019-01-29T04:05:01.941Z,1.82
2019-01-29T04:05:37.441Z,1.71
2019-01-29T04:06:12.879Z,1.71
2019-01-29T04:06:48.291Z,1.66
2019-01-29T04:07:23.791Z,1.62
2019-01-29T04:07:59.238Z,1.56
2019-01-29T04:08:34.921Z,1.55
2019-01-29T04:09:10.631Z,1.53
2019-01-29T04:09:46.149Z,1.54
2019-01-29T04:10:21.865Z,1.47
2019-01-29T04:10:57.392Z,1.41
2019-01-29T04:11:32.827Z,1.33
2019-01-29T04:12:08.261Z,1.35
2019-01-29T04:12:43.688Z,1.40
2019-01-29T04:13:19.123Z,1.41
2019-01-29T04:13:54.647Z,1.45
2019-01-29T04:14:30.105Z,1.34
2019-01-29T04:15:07.497Z,1.35
2019-01-29T04:15:43.392Z,1.39
2019-01-29T04:16:18.818Z,1.44
2019-01-29T04:16:54.384Z,1.31
2019-01-29T04:17:29.827Z,1.32
2019-01-29T04:18:05.329Z,1.31
2019-01-29T04:18:41.080Z,1.35
2019-01-29T04:19:16.566Z,1.25
2019-01-29T04:19:52.066Z,1.35
2019-01-29T04:20:27.914Z,1.28
2019-01-29T04:21:03.333Z,1.27
2019-01-29T04:21:38.773Z,1.28
2019-01-29T04:22:14.249Z,1.31
2019-01-29T04:22:49.758Z,1.34
2019-01-29T04:23:25.460Z,1.35
2019-01-29T04:24:00.982Z,1.41
2019-01-29T04:24:36.537Z,1.41
2019-01-29T04:25:12.632Z,1.33
2019-01-29T04:25:50.263Z,1.33
2019-01-29T04:26:25.682Z,1.35
2019-01-29T04:27:01.351Z,1.34
2019-01-29T04:27:37.095Z,1.40
2019-01-29T04:28:12.556Z,1.45
2019-01-29T04:28:48.003Z,1.41
2019-01-29T04:29:23.415Z,1.43
2019-01-29T04:29:58.869Z,1.40
2019-01-29T04:30:34.561Z,1.41
2019-01-29T04:31:10.032Z,1.32
2019-01-29T04:31:45.726Z,1.37
2019-01-29T04:32:21.141Z,1.41
2019-01-29T04:32:56.552Z,1.52
2019-01-29T04:33:32.257Z,1.58
2019-01-29T04:34:07.790Z,1.51
2019-01-29T04:34:43.524Z,1.46
2019-01-29T04:35:18.926Z,1.42
2019-01-29T04:35:54.347Z,1.41
2019-01-29T04:36:29.777Z,1.45
2019-01-29T04:37:05.210Z,1.36
2019-01-29T04:37:40.908Z,1.41
2019-01-29T04:38:16.375Z,1.39
2019-01-29T04:38:51.793Z,1.47
2019-01-29T04:39:27.313Z,1.34
2019-01-29T04:40:03.033Z,1.38
2019-01-29T04:40:38.753Z,1.46
2019-01-29T04:41:14.269Z,1.44
2019-01-29T04:41:49.699Z,1.52
2019-01-29T04:42:25.193Z,1.44
2019-01-29T04:43:00.890Z,1.34
2019-01-29T04:43:36.567Z,1.33
2019-01-29T04:44:12.048Z,1.33
2019-01-29T04:44:47.567Z,1.28
2019-01-29T04:45:23.003Z,1.29
2019-01-29T04:45:58.713Z,1.44
2019-01-29T04:46:34.131Z,1.54
2019-01-29T04:47:09.600Z,1.48
2019-01-29T04:47:45.339Z,1.48
2019-01-29T04:48:21.354Z,1.47
2019-01-29T04:48:56.771Z,1.56
2019-01-29T04:49:32.213Z,1.59
2019-01-29T04:50:09.113Z,1.53
2019-01-29T04:50:44.575Z,1.51
2019-01-29T04:51:20.191Z,1.58
2019-01-29T04:51:55.608Z,1.48
2019-01-29T04:52:31.035Z,1.42
2019-01-29T04:53:06.540Z,1.37
2019-01-29T04:53:41.959Z,1.40
2019-01-29T04:54:17.694Z,1.40
2019-01-29T04:54:53.127Z,1.49
2019-01-29T04:55:28.541Z,1.46
2019-01-29T04:56:04.051Z,1.40
2019-01-29T04:56:39.605Z,1.41
2019-01-29T04:57:15.059Z,1.40
2019-01-29T04:57:50.582Z,1.36
2019-01-29T04:58:26.012Z,1.34
2019-01-29T04:59:01.451Z,1.39
2019-01-29T04:59:37.147Z,1.41
2019-01-29T05:00:15.249Z,1.37
2019-01-29T05:00:50.670Z,1.39
2019-01-29T05:01:26.093Z,1.25
2019-01-29T05:02:01.523Z,1.21
2019-01-29T05:02:36.948Z,1.21
2019-01-29T05:03:12.401Z,1.15
2019-01-29T05:03:48.172Z,1.20
2019-01-29T05:04:23.592Z,1.16
2019-01-29T05:04:59.062Z,1.14
2019-01-29T05:05:34.763Z,1.13
2019-01-29T05:06:10.528Z,1.15
2019-01-29T05:06:45.994Z,1.24
2019-01-29T05:07:21.411Z,1.16
2019-01-29T05:07:56.923Z,1.16
2019-01-29T05:08:32.338Z,1.11
2019-01-29T05:09:09.212Z,1.18
2019-01-29T05:09:44.648Z,1.18
2019-01-29T05:10:20.216Z,1.13
2019-01-29T05:10:55.745Z,1.16
2019-01-29T05:11:31.159Z,1.16
2019-01-29T05:12:06.847Z,1.12
2019-01-29T05:12:42.342Z,1.10
2019-01-29T05:13:17.901Z,1.07
2019-01-29T05:13:53.374Z,1.17
2019-01-29T05:14:28.881Z,1.23
2019-01-29T05:15:04.917Z,1.14
2019-01-29T05:15:40.660Z,1.03
2019-01-29T05:16:16.121Z,1.05
2019-01-29T05:16:51.575Z,1.12
2019-01-29T05:17:27.002Z,1.11
2019-01-29T05:18:02.432Z,1.12
2019-01-29T05:18:37.938Z,1.04
2019-01-29T05:19:13.382Z,1.08
2019-01-29T05:19:48.795Z,0.96
2019-01-29T05:20:24.254Z,0.96
2019-01-29T05:20:59.660Z,0.95
2019-01-29T05:21:35.085Z,0.93
2019-01-29T05:22:10.624Z,0.92
2019-01-29T05:22:46.376Z,0.90
2019-01-29T05:23:21.826Z,0.99
2019-01-29T05:24:06.456Z,1.08
2019-01-29T05:24:34.337Z,0.99
2019-01-29T05:25:10.380Z,0.93
2019-01-29T05:25:46.137Z,0.95
2019-01-29T05:26:21.948Z,0.94
2019-01-29T05:26:57.628Z,0.96
2019-01-29T05:27:33.070Z,0.89
2019-01-29T05:28:08.557Z,0.82
2019-01-29T05:28:44.033Z,0.80
2019-01-29T05:29:19.800Z,0.87
2019-01-29T05:29:55.283Z,0.83
2019-01-29T05:30:30.737Z,0.87
2019-01-29T05:31:06.168Z,0.83
2019-01-29T05:31:41.805Z,0.83
2019-01-29T05:32:17.237Z,0.93
2019-01-29T05:32:52.665Z,0.82
2019-01-29T05:33:28.073Z,0.88
2019-01-29T05:34:03.752Z,0.84
2019-01-29T05:34:39.282Z,0.87
2019-01-29T05:35:14.894Z,0.83
2019-01-29T05:35:50.662Z,0.87
2019-01-29T05:36:26.089Z,0.77
2019-01-29T05:37:01.518Z,0.78
2019-01-29T05:37:37.675Z,0.81
2019-01-29T05:38:13.112Z,0.76
2019-01-29T05:38:48.673Z,0.75
2019-01-29T05:39:24.409Z,0.78
2019-01-29T05:40:00.270Z,0.74
2019-01-29T05:40:35.711Z,0.73
2019-01-29T05:41:11.140Z,0.73
2019-01-29T05:41:47.177Z,0.69
2019-01-29T05:42:22.622Z,0.73
2019-01-29T05:42:58.276Z,0.63
2019-01-29T05:43:33.767Z,0.59
2019-01-29T05:44:09.205Z,0.61
2019-01-29T05:44:44.676Z,0.63
2019-01-29T05:45:21.101Z,0.70
2019-01-29T05:45:56.562Z,0.65
2019-01-29T05:46:31.963Z,0.63
2019-01-29T05:47:07.728Z,0.63
2019-01-29T05:47:43.361Z,0.64
2019-01-29T05:48:19.230Z,0.71
2019-01-29T05:48:54.732Z,0.71
2019-01-29T05:49:30.139Z,0.72
2019-01-29T05:50:06.733Z,0.76
2019-01-29T05:50:42.336Z,0.73
2019-01-29T05:51:18.172Z,0.68
2019-01-29T05:51:53.588Z,0.75
2019-01-29T05:52:29.026Z,0.79
2019-01-29T05:53:04.556Z,0.91
2019-01-29T05:53:40.298Z,0.88
2019-01-29T05:54:16.598Z,0.88
2019-01-29T05:54:52.189Z,0.93
2019-01-29T05:55:27.606Z,0.88
2019-01-29T05:56:03.147Z,0.88
2019-01-29T05:56:38.921Z,0.81
2019-01-29T05:57:14.371Z,0.86
2019-01-29T05:57:49.918Z,0.80
2019-01-29T05:58:25.337Z,0.77
2019-01-29T05:59:00.762Z,0.80
2019-01-29T05:59:36.502Z,0.79
2019-01-29T06:00:15.209Z,0.76
2019-01-29T06:00:50.691Z,0.75
2019-01-29T06:01:26.387Z,0.73
2019-01-29T06:02:01.792Z,0.78
2019-01-29T06:02:37.217Z,0.78
2019-01-29T06:03:12.648Z,0.78
2019-01-29T06:03:48.468Z,0.80
2019-01-29T06:04:23.913Z,0.81
2019-01-29T06:04:59.340Z,0.82
2019-01-29T06:05:34.772Z,0.81
2019-01-29T06:06:10.335Z,0.81
2019-01-29T06:06:45.984Z,0.81
2019-01-29T06:07:21.437Z,0.82
2019-01-29T06:07:57.169Z,0.92
2019-01-29T06:08:32.875Z,0.88
2019-01-29T06:09:09.410Z,0.91
2019-01-29T06:09:45.283Z,0.87
2019-01-29T06:10:20.820Z,0.81
2019-01-29T06:10:56.223Z,0.84
2019-01-29T06:11:31.974Z,0.87
2019-01-29T06:12:07.630Z,0.90
2019-01-29T06:12:43.007Z,0.89
2019-01-29T06:13:18.678Z,0.89
2019-01-29T06:13:54.096Z,0.84
2019-01-29T06:14:29.870Z,0.85
2019-01-29T06:15:06.832Z,0.84
2019-01-29T06:15:42.249Z,0.77
2019-01-29T06:16:17.675Z,0.77
2019-01-29T06:16:53.376Z,0.76
2019-01-29T06:17:29.088Z,0.82
2019-01-29T06:18:04.784Z,0.82
2019-01-29T06:18:40.132Z,0.80
2019-01-29T06:19:15.534Z,0.87
2019-01-29T06:19:50.977Z,0.87
2019-01-29T06:20:27.286Z,0.81
2019-01-29T06:21:02.747Z,0.69
2019-01-29T06:21:38.146Z,0.67
2019-01-29T06:22:13.538Z,0.66
2019-01-29T06:22:49.004Z,0.66
2019-01-29T06:23:24.467Z,0.61
2019-01-29T06:23:59.913Z,0.55
2019-01-29T06:24:35.381Z,0.62
2019-01-29T06:25:10.778Z,0.62
2019-01-29T06:25:46.148Z,0.69
2019-01-29T06:26:21.683Z,0.74
2019-01-29T06:26:57.119Z,0.73
2019-01-29T06:27:32.821Z,0.65
2019-01-29T06:28:08.476Z,0.59
2019-01-29T06:28:43.879Z,0.61
2019-01-29T06:29:19.543Z,0.66
2019-01-29T06:29:55.071Z,0.59
2019-01-29T06:30:30.512Z,0.60
2019-01-29T06:31:05.918Z,0.57
2019-01-29T06:31:41.342Z,0.55
2019-01-29T06:32:16.973Z,0.62
2019-01-29T06:32:52.731Z,0.62
2019-01-29T06:33:28.425Z,0.58
2019-01-29T06:34:04.086Z,0.48
2019-01-29T06:34:39.472Z,0.52
2019-01-29T06:35:16.022Z,0.51
2019-01-29T06:35:51.729Z,0.50
2019-01-29T06:36:27.211Z,0.45
2019-01-29T06:37:02.602Z,0.54
2019-01-29T06:37:38.025Z,0.53
2019-01-29T06:38:13.413Z,0.59
2019-01-29T06:38:49.097Z,0.57
2019-01-29T06:39:24.587Z,0.60
2019-01-29T06:40:00.391Z,0.68
2019-01-29T06:40:35.911Z,0.60
2019-01-29T06:41:11.319Z,0.62
2019-01-29T06:41:46.785Z,0.62
2019-01-29T06:42:22.252Z,0.54
2019-01-29T06:42:57.947Z,0.53
2019-01-29T06:43:33.373Z,0.51
2019-01-29T06:44:08.773Z,0.44
2019-01-29T06:44:44.171Z,0.51
2019-01-29T06:45:20.504Z,0.51
2019-01-29T06:45:56.280Z,0.54
2019-01-29T06:46:31.752Z,0.58
2019-01-29T06:47:07.191Z,0.51
2019-01-29T06:47:42.855Z,0.56
2019-01-29T06:48:18.247Z,0.59
2019-01-29T06:48:54.001Z,0.58
2019-01-29T06:49:29.456Z,0.53
2019-01-29T06:50:06.209Z,0.60
2019-01-29T06:50:41.642Z,0.66
2019-01-29T06:51:17.053Z,0.57
2019-01-29T06:51:52.549Z,0.55
2019-01-29T06:52:27.986Z,0.53
2019-01-29T06:53:03.387Z,0.55
2019-01-29T06:53:38.778Z,0.56
2019-01-29T06:54:14.194Z,0.56
2019-01-29T06:54:49.587Z,0.67
2019-01-29T06:55:25.958Z,0.67
2019-01-29T06:56:01.668Z,0.67
2019-01-29T06:56:37.083Z,0.80
2019-01-29T06:57:12.761Z,0.90
2019-01-29T06:57:54.995Z,0.91
2019-01-29T06:58:25.386Z,0.81
2019-01-29T06:59:00.811Z,0.74
2019-01-29T06:59:36.245Z,0.80
2019-01-29T07:00:17.642Z,0.80
2019-01-29T07:00:53.025Z,0.76
2019-01-29T07:01:28.605Z,0.92
2019-01-29T07:02:04.245Z,1.03
2019-01-29T07:02:39.975Z,1.08
2019-01-29T07:03:15.541Z,1.11
2019-01-29T07:03:50.962Z,0.98
2019-01-29T07:04:26.628Z,0.92
2019-01-29T07:05:02.360Z,0.91
2019-01-29T07:05:37.773Z,0.87
2019-01-29T07:06:13.185Z,0.85
2019-01-29T07:06:48.854Z,0.86
2019-01-29T07:07:26.003Z,0.88
2019-01-29T07:08:01.695Z,0.87
2019-01-29T07:08:37.080Z,0.93
2019-01-29T07:09:12.464Z,0.90
2019-01-29T07:09:47.956Z,0.94
2019-01-29T07:10:23.770Z,1.03
2019-01-29T07:10:59.453Z,1.10
2019-01-29T07:11:34.854Z,1.09
2019-01-29T07:12:10.268Z,1.10
2019-01-29T07:12:46.037Z,1.17
2019-01-29T07:13:21.718Z,1.12
2019-01-29T07:13:57.185Z,1.02
2019-01-29T07:14:32.713Z,1.02
2019-01-29T07:15:11.052Z,1.06
2019-01-29T07:16:04.151Z,1.15
2019-01-29T07:16:58.533Z,1.05
2019-01-29T07:17:36.196Z,1.22
2019-01-29T07:18:20.622Z,1.11
2019-01-29T07:19:13.901Z,1.02
2019-01-29T07:19:51.609Z,1.02
2019-01-29T07:20:27.449Z,0.98
2019-01-29T07:21:04.760Z,1.07
2019-01-29T07:21:40.195Z,1.08
2019-01-29T07:22:15.593Z,1.07
2019-01-29T07:22:51.023Z,1.06
2019-01-29T07:23:26.491Z,1.11
2019-01-29T07:24:01.914Z,1.22
2019-01-29T07:24:42.651Z,1.23
2019-01-29T07:25:14.673Z,1.33
2019-01-29T07:25:50.052Z,1.23
2019-01-29T07:26:25.815Z,1.16
2019-01-29T07:27:01.643Z,1.12
2019-01-29T07:27:37.041Z,1.17
2019-01-29T07:28:13.454Z,1.21
2019-01-29T07:28:49.194Z,1.22
2019-01-29T07:29:24.644Z,1.18
2019-01-29T07:30:00.286Z,1.21
2019-01-29T07:30:35.783Z,1.25
2019-01-29T07:31:11.193Z,1.25
2019-01-29T07:31:46.666Z,1.33
2019-01-29T07:32:22.095Z,1.28
2019-01-29T07:32:57.572Z,1.21
2019-01-29T07:33:32.977Z,1.22
2019-01-29T07:34:08.389Z,1.30
2019-01-29T07:34:43.812Z,1.26
2019-01-29T07:35:19.196Z,1.27
2019-01-29T07:35:54.854Z,1.34
2019-01-29T07:36:30.284Z,1.33
2019-01-29T07:37:05.836Z,1.35
2019-01-29T07:37:41.251Z,1.36
2019-01-29T07:38:16.626Z,1.39
2019-01-29T07:38:52.024Z,1.45
2019-01-29T07:39:27.458Z,1.40
2019-01-29T07:40:02.928Z,1.49
2019-01-29T07:40:38.343Z,1.54
2019-01-29T07:41:13.747Z,1.49
2019-01-29T07:41:49.133Z,1.53
2019-01-29T07:42:24.648Z,1.46
2019-01-29T07:43:00.343Z,1.45
2019-01-29T07:43:35.794Z,1.43
2019-01-29T07:44:11.207Z,1.38
2019-01-29T07:44:46.679Z,1.36
2019-01-29T07:45:22.269Z,1.33
2019-01-29T07:45:58.023Z,1.31
2019-01-29T07:46:33.557Z,1.41
2019-01-29T07:47:08.978Z,1.38
2019-01-29T07:47:44.645Z,1.42
2019-01-29T07:48:20.103Z,1.37
2019-01-29T07:48:57.616Z,1.38
2019-01-29T07:49:33.334Z,1.41
2019-01-29T07:50:09.231Z,1.48
2019-01-29T07:50:44.622Z,1.43
2019-01-29T07:51:20.016Z,1.44
2019-01-29T07:51:55.443Z,1.42
2019-01-29T07:52:31.261Z,1.43
2019-01-29T07:53:06.694Z,1.55
2019-01-29T07:53:42.076Z,1.62
2019-01-29T07:54:17.469Z,1.52
2019-01-29T07:54:52.856Z,1.43
2019-01-29T07:55:28.296Z,1.43
2019-01-29T07:56:03.787Z,1.44